sensor_id;sensor_type;location;lat;lon;timestamp;P1;durP1;ratioP1;P2;durP2;ratioP2
3849;SDS011;1940;51.052;13.678;2022-08-27T00:02:07;17.30;;;8.53;;
3849;SDS011;1940;51.052;13.678;2022-08-27T00:04:33;21.70;;;8.60;;
3849;SDS011;1940;51.052;13.678;2022-08-27T00:06:59;15.13;;;8.70;;
3849;SDS011;1940;51.052;13.678;2022-08-27T00:09:26;18.03;;;8.67;;
3849;SDS011;1940;51.052;13.678;2022-08-27T00:11:52;13.77;;;8.90;;
3849;SDS011;1940;51.052;13.678;2022-08-27T00:14:18;13.90;;;8.70;;
3849;SDS011;1940;51.052;13.678;2022-08-27T00:16:43;12.30;;;8.23;;
3849;SDS011;1940;51.052;13.678;2022-08-27T00:19:09;20.73;;;8.90;;
3849;SDS011;1940;51.052;13.678;2022-08-27T00:21:35;20.17;;;9.20;;
3849;SDS011;1940;51.052;13.678;2022-08-27T00:24:01;14.90;;;8.30;;
3849;SDS011;1940;51.052;13.678;2022-08-27T00:26:27;14.73;;;9.07;;
3849;SDS011;1940;51.052;13.678;2022-08-27T00:28:53;13.10;;;8.93;;
3849;SDS011;1940;51.052;13.678;2022-08-27T00:31:18;14.07;;;8.27;;
3849;SDS011;1940;51.052;13.678;2022-08-27T00:33:44;14.23;;;9.30;;
3849;SDS011;1940;51.052;13.678;2022-08-27T00:36:10;14.60;;;8.50;;
3849;SDS011;1940;51.052;13.678;2022-08-27T00:38:36;13.90;;;9.07;;
3849;SDS011;1940;51.052;13.678;2022-08-27T00:41:04;13.43;;;8.17;;
3849;SDS011;1940;51.052;13.678;2022-08-27T00:43:43;16.10;;;9.10;;
3849;SDS011;1940;51.052;13.678;2022-08-27T00:46:17;19.63;;;9.33;;
3849;SDS011;1940;51.052;13.678;2022-08-27T00:49:06;26.77;;;9.77;;
3849;SDS011;1940;51.052;13.678;2022-08-27T00:51:35;13.80;;;9.67;;
3849;SDS011;1940;51.052;13.678;2022-08-27T00:54:02;17.37;;;9.97;;
3849;SDS011;1940;51.052;13.678;2022-08-27T00:56:31;13.40;;;9.80;;
3849;SDS011;1940;51.052;13.678;2022-08-27T00:59:00;11.33;;;8.30;;
3849;SDS011;1940;51.052;13.678;2022-08-27T01:01:28;18.97;;;9.20;;
3849;SDS011;1940;51.052;13.678;2022-08-27T01:03:57;23.03;;;11.30;;
3849;SDS011;1940;51.052;13.678;2022-08-27T01:06:25;14.97;;;10.30;;
3849;SDS011;1940;51.052;13.678;2022-08-27T01:09:00;15.57;;;9.50;;
3849;SDS011;1940;51.052;13.678;2022-08-27T01:11:31;21.00;;;12.03;;
3849;SDS011;1940;51.052;13.678;2022-08-27T01:13:57;16.90;;;9.43;;
3849;SDS011;1940;51.052;13.678;2022-08-27T01:16:26;16.53;;;9.40;;
3849;SDS011;1940;51.052;13.678;2022-08-27T01:18:57;12.70;;;8.60;;
3849;SDS011;1940;51.052;13.678;2022-08-27T01:21:27;16.13;;;9.03;;
3849;SDS011;1940;51.052;13.678;2022-08-27T01:24:35;14.43;;;9.80;;
3849;SDS011;1940;51.052;13.678;2022-08-27T01:27:03;20.50;;;9.17;;
3849;SDS011;1940;51.052;13.678;2022-08-27T01:29:31;15.07;;;9.50;;
3849;SDS011;1940;51.052;13.678;2022-08-27T01:31:58;15.40;;;9.80;;
3849;SDS011;1940;51.052;13.678;2022-08-27T01:34:30;15.87;;;9.67;;
3849;SDS011;1940;51.052;13.678;2022-08-27T01:36:56;16.80;;;10.00;;
3849;SDS011;1940;51.052;13.678;2022-08-27T01:39:22;13.73;;;9.90;;
3849;SDS011;1940;51.052;13.678;2022-08-27T01:41:47;13.23;;;8.70;;
3849;SDS011;1940;51.052;13.678;2022-08-27T01:44:13;12.50;;;9.90;;
3849;SDS011;1940;51.052;13.678;2022-08-27T01:46:38;17.43;;;9.30;;
3849;SDS011;1940;51.052;13.678;2022-08-27T01:49:04;15.33;;;9.43;;
3849;SDS011;1940;51.052;13.678;2022-08-27T01:51:29;15.03;;;8.83;;
3849;SDS011;1940;51.052;13.678;2022-08-27T01:53:55;12.60;;;8.27;;
3849;SDS011;1940;51.052;13.678;2022-08-27T01:56:21;12.57;;;8.90;;
3849;SDS011;1940;51.052;13.678;2022-08-27T01:58:47;13.37;;;8.63;;
3849;SDS011;1940;51.052;13.678;2022-08-27T02:01:13;14.93;;;9.03;;
3849;SDS011;1940;51.052;13.678;2022-08-27T02:03:43;13.63;;;9.27;;
3849;SDS011;1940;51.052;13.678;2022-08-27T02:06:11;13.30;;;8.80;;
3849;SDS011;1940;51.052;13.678;2022-08-27T02:08:37;15.80;;;9.53;;
3849;SDS011;1940;51.052;13.678;2022-08-27T02:11:03;11.70;;;9.10;;
3849;SDS011;1940;51.052;13.678;2022-08-27T02:13:29;12.67;;;9.20;;
3849;SDS011;1940;51.052;13.678;2022-08-27T02:15:54;19.70;;;10.90;;
3849;SDS011;1940;51.052;13.678;2022-08-27T02:18:20;15.37;;;9.60;;
3849;SDS011;1940;51.052;13.678;2022-08-27T02:20:46;15.77;;;10.60;;
3849;SDS011;1940;51.052;13.678;2022-08-27T02:23:12;21.37;;;11.33;;
3849;SDS011;1940;51.052;13.678;2022-08-27T02:25:39;18.43;;;10.37;;
3849;SDS011;1940;51.052;13.678;2022-08-27T02:28:05;17.40;;;11.00;;
3849;SDS011;1940;51.052;13.678;2022-08-27T02:30:32;15.40;;;10.03;;
3849;SDS011;1940;51.052;13.678;2022-08-27T02:32:59;16.47;;;10.50;;
3849;SDS011;1940;51.052;13.678;2022-08-27T02:35:26;15.00;;;9.80;;
3849;SDS011;1940;51.052;13.678;2022-08-27T02:37:52;20.43;;;10.40;;
3849;SDS011;1940;51.052;13.678;2022-08-27T02:40:19;13.57;;;9.43;;
3849;SDS011;1940;51.052;13.678;2022-08-27T02:42:46;17.17;;;9.60;;
3849;SDS011;1940;51.052;13.678;2022-08-27T02:45:12;13.10;;;8.83;;
3849;SDS011;1940;51.052;13.678;2022-08-27T02:47:38;13.10;;;7.63;;
3849;SDS011;1940;51.052;13.678;2022-08-27T02:50:04;14.30;;;7.90;;
3849;SDS011;1940;51.052;13.678;2022-08-27T02:52:31;12.50;;;7.10;;
3849;SDS011;1940;51.052;13.678;2022-08-27T02:54:56;14.20;;;7.03;;
3849;SDS011;1940;51.052;13.678;2022-08-27T02:57:23;11.07;;;5.77;;
3849;SDS011;1940;51.052;13.678;2022-08-27T02:59:49;8.50;;;5.70;;
3849;SDS011;1940;51.052;13.678;2022-08-27T03:02:15;7.10;;;5.30;;
3849;SDS011;1940;51.052;13.678;2022-08-27T03:04:41;7.73;;;5.00;;
3849;SDS011;1940;51.052;13.678;2022-08-27T03:07:07;7.03;;;5.13;;
3849;SDS011;1940;51.052;13.678;2022-08-27T03:09:33;8.07;;;5.03;;
3849;SDS011;1940;51.052;13.678;2022-08-27T03:11:59;8.47;;;4.30;;
3849;SDS011;1940;51.052;13.678;2022-08-27T03:14:26;6.03;;;4.07;;
3849;SDS011;1940;51.052;13.678;2022-08-27T03:16:52;7.67;;;4.77;;
3849;SDS011;1940;51.052;13.678;2022-08-27T03:19:17;9.13;;;5.00;;
3849;SDS011;1940;51.052;13.678;2022-08-27T03:21:43;6.93;;;4.60;;
3849;SDS011;1940;51.052;13.678;2022-08-27T03:24:10;10.47;;;6.13;;
3849;SDS011;1940;51.052;13.678;2022-08-27T03:26:35;13.63;;;6.10;;
3849;SDS011;1940;51.052;13.678;2022-08-27T03:29:01;9.30;;;5.60;;
3849;SDS011;1940;51.052;13.678;2022-08-27T03:31:26;10.07;;;6.33;;
3849;SDS011;1940;51.052;13.678;2022-08-27T03:33:54;13.20;;;6.80;;
3849;SDS011;1940;51.052;13.678;2022-08-27T03:36:25;10.30;;;6.60;;
3849;SDS011;1940;51.052;13.678;2022-08-27T03:38:52;14.77;;;8.17;;
3849;SDS011;1940;51.052;13.678;2022-08-27T03:41:17;22.93;;;8.87;;
3849;SDS011;1940;51.052;13.678;2022-08-27T03:43:44;16.20;;;9.90;;
3849;SDS011;1940;51.052;13.678;2022-08-27T03:46:10;16.20;;;8.87;;
3849;SDS011;1940;51.052;13.678;2022-08-27T03:48:37;17.10;;;8.67;;
3849;SDS011;1940;51.052;13.678;2022-08-27T03:51:06;17.00;;;9.83;;
3849;SDS011;1940;51.052;13.678;2022-08-27T03:53:34;21.93;;;13.20;;
3849;SDS011;1940;51.052;13.678;2022-08-27T03:56:01;30.70;;;14.10;;
3849;SDS011;1940;51.052;13.678;2022-08-27T03:58:27;28.47;;;13.40;;
3849;SDS011;1940;51.052;13.678;2022-08-27T04:00:53;32.20;;;16.03;;
3849;SDS011;1940;51.052;13.678;2022-08-27T04:03:18;28.70;;;14.60;;
3849;SDS011;1940;51.052;13.678;2022-08-27T04:05:44;24.47;;;14.53;;
3849;SDS011;1940;51.052;13.678;2022-08-27T04:08:09;28.33;;;15.30;;
3849;SDS011;1940;51.052;13.678;2022-08-27T04:10:37;39.83;;;15.73;;
3849;SDS011;1940;51.052;13.678;2022-08-27T04:13:04;32.20;;;15.67;;
3849;SDS011;1940;51.052;13.678;2022-08-27T04:15:30;28.83;;;14.40;;
3849;SDS011;1940;51.052;13.678;2022-08-27T04:17:55;22.70;;;13.53;;
3849;SDS011;1940;51.052;13.678;2022-08-27T04:20:21;33.70;;;14.20;;
3849;SDS011;1940;51.052;13.678;2022-08-27T04:22:46;26.97;;;14.30;;
3849;SDS011;1940;51.052;13.678;2022-08-27T04:25:12;23.53;;;13.50;;
3849;SDS011;1940;51.052;13.678;2022-08-27T04:27:38;23.40;;;12.80;;
3849;SDS011;1940;51.052;13.678;2022-08-27T04:30:03;26.20;;;13.37;;
3849;SDS011;1940;51.052;13.678;2022-08-27T04:32:30;24.50;;;12.57;;
3849;SDS011;1940;51.052;13.678;2022-08-27T04:34:56;25.10;;;14.30;;
3849;SDS011;1940;51.052;13.678;2022-08-27T04:37:24;27.03;;;13.00;;
3849;SDS011;1940;51.052;13.678;2022-08-27T04:39:50;21.93;;;13.50;;
3849;SDS011;1940;51.052;13.678;2022-08-27T04:42:17;26.50;;;12.67;;
3849;SDS011;1940;51.052;13.678;2022-08-27T04:44:43;26.57;;;12.83;;
3849;SDS011;1940;51.052;13.678;2022-08-27T04:47:10;18.10;;;10.30;;
3849;SDS011;1940;51.052;13.678;2022-08-27T04:49:37;28.00;;;11.47;;
3849;SDS011;1940;51.052;13.678;2022-08-27T04:52:03;20.60;;;11.27;;
3849;SDS011;1940;51.052;13.678;2022-08-27T04:54:29;16.17;;;10.17;;
3849;SDS011;1940;51.052;13.678;2022-08-27T04:56:55;16.17;;;9.27;;
3849;SDS011;1940;51.052;13.678;2022-08-27T04:59:21;15.10;;;9.10;;
3849;SDS011;1940;51.052;13.678;2022-08-27T05:01:46;13.70;;;8.17;;
3849;SDS011;1940;51.052;13.678;2022-08-27T05:04:13;17.10;;;9.57;;
3849;SDS011;1940;51.052;13.678;2022-08-27T05:06:40;16.80;;;8.80;;
3849;SDS011;1940;51.052;13.678;2022-08-27T05:09:08;17.93;;;9.83;;
3849;SDS011;1940;51.052;13.678;2022-08-27T05:11:34;20.27;;;10.43;;
3849;SDS011;1940;51.052;13.678;2022-08-27T05:14:03;23.90;;;11.20;;
3849;SDS011;1940;51.052;13.678;2022-08-27T05:16:30;21.20;;;11.13;;
3849;SDS011;1940;51.052;13.678;2022-08-27T05:18:56;19.40;;;11.70;;
3849;SDS011;1940;51.052;13.678;2022-08-27T05:21:24;19.03;;;12.23;;
3849;SDS011;1940;51.052;13.678;2022-08-27T05:23:52;21.17;;;12.00;;
3849;SDS011;1940;51.052;13.678;2022-08-27T05:26:19;19.17;;;12.20;;
3849;SDS011;1940;51.052;13.678;2022-08-27T05:28:45;25.03;;;12.57;;
3849;SDS011;1940;51.052;13.678;2022-08-27T05:31:12;23.70;;;14.27;;
3849;SDS011;1940;51.052;13.678;2022-08-27T05:33:39;23.70;;;15.43;;
3849;SDS011;1940;51.052;13.678;2022-08-27T05:36:07;26.30;;;14.33;;
3849;SDS011;1940;51.052;13.678;2022-08-27T05:38:40;28.10;;;16.33;;
3849;SDS011;1940;51.052;13.678;2022-08-27T05:41:08;27.40;;;17.00;;
3849;SDS011;1940;51.052;13.678;2022-08-27T05:43:35;34.60;;;18.33;;
3849;SDS011;1940;51.052;13.678;2022-08-27T05:46:02;28.50;;;16.63;;
3849;SDS011;1940;51.052;13.678;2022-08-27T05:48:31;30.03;;;16.60;;
3849;SDS011;1940;51.052;13.678;2022-08-27T05:51:05;29.73;;;16.97;;
3849;SDS011;1940;51.052;13.678;2022-08-27T05:53:32;26.43;;;14.80;;
3849;SDS011;1940;51.052;13.678;2022-08-27T05:55:57;26.67;;;15.70;;
3849;SDS011;1940;51.052;13.678;2022-08-27T05:58:24;26.90;;;15.93;;
3849;SDS011;1940;51.052;13.678;2022-08-27T06:01:08;28.10;;;15.73;;
3849;SDS011;1940;51.052;13.678;2022-08-27T06:03:35;30.03;;;16.60;;
3849;SDS011;1940;51.052;13.678;2022-08-27T06:06:02;26.80;;;16.40;;
3849;SDS011;1940;51.052;13.678;2022-08-27T06:08:30;32.00;;;16.67;;
3849;SDS011;1940;51.052;13.678;2022-08-27T06:10:55;28.93;;;15.83;;
3849;SDS011;1940;51.052;13.678;2022-08-27T06:13:25;28.37;;;16.80;;
3849;SDS011;1940;51.052;13.678;2022-08-27T06:15:59;30.37;;;17.53;;
3849;SDS011;1940;51.052;13.678;2022-08-27T06:18:29;32.53;;;17.77;;
3849;SDS011;1940;51.052;13.678;2022-08-27T06:20:55;29.00;;;17.20;;
3849;SDS011;1940;51.052;13.678;2022-08-27T06:23:21;26.80;;;17.13;;
3849;SDS011;1940;51.052;13.678;2022-08-27T06:25:47;29.37;;;17.07;;
3849;SDS011;1940;51.052;13.678;2022-08-27T06:28:13;40.37;;;18.80;;
3849;SDS011;1940;51.052;13.678;2022-08-27T06:30:38;26.33;;;16.17;;
3849;SDS011;1940;51.052;13.678;2022-08-27T06:33:04;28.17;;;16.10;;
3849;SDS011;1940;51.052;13.678;2022-08-27T06:35:30;27.73;;;14.80;;
3849;SDS011;1940;51.052;13.678;2022-08-27T06:37:58;24.50;;;15.20;;
3849;SDS011;1940;51.052;13.678;2022-08-27T06:40:24;23.87;;;15.27;;
3849;SDS011;1940;51.052;13.678;2022-08-27T06:42:49;24.77;;;14.50;;
3849;SDS011;1940;51.052;13.678;2022-08-27T06:45:15;23.00;;;13.60;;
3849;SDS011;1940;51.052;13.678;2022-08-27T06:47:41;22.00;;;13.60;;
3849;SDS011;1940;51.052;13.678;2022-08-27T06:50:06;21.70;;;12.67;;
3849;SDS011;1940;51.052;13.678;2022-08-27T06:52:32;23.97;;;13.13;;
3849;SDS011;1940;51.052;13.678;2022-08-27T06:54:58;19.50;;;12.10;;
3849;SDS011;1940;51.052;13.678;2022-08-27T06:57:23;20.07;;;12.70;;
3849;SDS011;1940;51.052;13.678;2022-08-27T06:59:49;21.90;;;13.33;;
3849;SDS011;1940;51.052;13.678;2022-08-27T07:02:15;19.93;;;11.50;;
3849;SDS011;1940;51.052;13.678;2022-08-27T07:04:41;17.90;;;12.37;;
3849;SDS011;1940;51.052;13.678;2022-08-27T07:07:06;16.13;;;11.20;;
3849;SDS011;1940;51.052;13.678;2022-08-27T07:09:35;18.90;;;12.30;;
3849;SDS011;1940;51.052;13.678;2022-08-27T07:12:01;19.50;;;12.60;;
3849;SDS011;1940;51.052;13.678;2022-08-27T07:14:27;21.80;;;12.83;;
3849;SDS011;1940;51.052;13.678;2022-08-27T07:16:53;18.27;;;12.00;;
3849;SDS011;1940;51.052;13.678;2022-08-27T07:19:19;18.10;;;11.87;;
3849;SDS011;1940;51.052;13.678;2022-08-27T07:21:44;19.40;;;12.13;;
3849;SDS011;1940;51.052;13.678;2022-08-27T07:24:10;27.70;;;12.00;;
3849;SDS011;1940;51.052;13.678;2022-08-27T07:26:38;19.17;;;13.00;;
3849;SDS011;1940;51.052;13.678;2022-08-27T07:29:07;19.33;;;12.80;;
3849;SDS011;1940;51.052;13.678;2022-08-27T07:31:35;23.33;;;13.17;;
3849;SDS011;1940;51.052;13.678;2022-08-27T07:34:02;18.13;;;12.40;;
3849;SDS011;1940;51.052;13.678;2022-08-27T07:36:29;22.90;;;12.17;;
3849;SDS011;1940;51.052;13.678;2022-08-27T07:38:56;20.00;;;13.50;;
3849;SDS011;1940;51.052;13.678;2022-08-27T07:41:22;21.80;;;14.13;;
3849;SDS011;1940;51.052;13.678;2022-08-27T07:43:47;21.73;;;14.00;;
3849;SDS011;1940;51.052;13.678;2022-08-27T07:46:31;21.27;;;13.53;;
3849;SDS011;1940;51.052;13.678;2022-08-27T07:48:57;22.00;;;13.60;;
3849;SDS011;1940;51.052;13.678;2022-08-27T07:51:23;28.10;;;14.40;;
3849;SDS011;1940;51.052;13.678;2022-08-27T07:53:50;18.20;;;12.77;;
3849;SDS011;1940;51.052;13.678;2022-08-27T07:56:18;23.17;;;12.60;;
3849;SDS011;1940;51.052;13.678;2022-08-27T07:58:44;21.53;;;13.40;;
3849;SDS011;1940;51.052;13.678;2022-08-27T08:01:11;22.77;;;14.07;;
3849;SDS011;1940;51.052;13.678;2022-08-27T08:03:37;20.37;;;13.20;;
3849;SDS011;1940;51.052;13.678;2022-08-27T08:06:04;24.80;;;13.73;;
3849;SDS011;1940;51.052;13.678;2022-08-27T08:08:40;24.90;;;13.03;;
3849;SDS011;1940;51.052;13.678;2022-08-27T08:11:06;19.17;;;12.20;;
3849;SDS011;1940;51.052;13.678;2022-08-27T08:13:33;21.57;;;12.30;;
3849;SDS011;1940;51.052;13.678;2022-08-27T08:15:59;16.93;;;11.03;;
3849;SDS011;1940;51.052;13.678;2022-08-27T08:18:25;16.83;;;10.27;;
3849;SDS011;1940;51.052;13.678;2022-08-27T08:20:52;13.73;;;9.53;;
3849;SDS011;1940;51.052;13.678;2022-08-27T08:23:29;16.27;;;8.87;;
3849;SDS011;1940;51.052;13.678;2022-08-27T08:25:56;17.67;;;10.20;;
3849;SDS011;1940;51.052;13.678;2022-08-27T08:28:22;15.97;;;10.03;;
3849;SDS011;1940;51.052;13.678;2022-08-27T08:30:49;13.73;;;9.80;;
3849;SDS011;1940;51.052;13.678;2022-08-27T08:33:16;14.47;;;9.87;;
3849;SDS011;1940;51.052;13.678;2022-08-27T08:35:41;17.00;;;9.17;;
3849;SDS011;1940;51.052;13.678;2022-08-27T08:38:07;17.03;;;9.67;;
3849;SDS011;1940;51.052;13.678;2022-08-27T08:40:35;15.77;;;9.77;;
3849;SDS011;1940;51.052;13.678;2022-08-27T08:43:03;17.83;;;10.00;;
3849;SDS011;1940;51.052;13.678;2022-08-27T08:45:32;15.40;;;9.40;;
3849;SDS011;1940;51.052;13.678;2022-08-27T08:50:50;16.00;;;8.90;;
3849;SDS011;1940;51.052;13.678;2022-08-27T08:53:44;14.43;;;8.37;;
3849;SDS011;1940;51.052;13.678;2022-08-27T08:56:28;16.63;;;8.60;;
3849;SDS011;1940;51.052;13.678;2022-08-27T08:59:02;13.47;;;8.60;;
3849;SDS011;1940;51.052;13.678;2022-08-27T09:01:38;18.13;;;8.30;;
3849;SDS011;1940;51.052;13.678;2022-08-27T09:04:06;11.20;;;7.53;;
3849;SDS011;1940;51.052;13.678;2022-08-27T09:06:50;9.93;;;7.77;;
3849;SDS011;1940;51.052;13.678;2022-08-27T09:12:03;9.80;;;7.40;;
3849;SDS011;1940;51.052;13.678;2022-08-27T09:14:52;12.57;;;7.90;;
3849;SDS011;1940;51.052;13.678;2022-08-27T09:17:21;9.93;;;7.10;;
3849;SDS011;1940;51.052;13.678;2022-08-27T09:19:47;11.03;;;7.30;;
3849;SDS011;1940;51.052;13.678;2022-08-27T09:27:23;10.73;;;8.13;;
3849;SDS011;1940;51.052;13.678;2022-08-27T09:29:53;10.40;;;7.83;;
3849;SDS011;1940;51.052;13.678;2022-08-27T09:32:21;9.93;;;7.30;;
3849;SDS011;1940;51.052;13.678;2022-08-27T09:34:48;9.13;;;6.63;;
3849;SDS011;1940;51.052;13.678;2022-08-27T09:37:19;12.00;;;7.10;;
3849;SDS011;1940;51.052;13.678;2022-08-27T09:39:50;10.10;;;6.70;;
3849;SDS011;1940;51.052;13.678;2022-08-27T09:42:29;9.03;;;7.03;;
3849;SDS011;1940;51.052;13.678;2022-08-27T09:45:06;9.17;;;6.37;;
3849;SDS011;1940;51.052;13.678;2022-08-27T09:48:01;8.70;;;6.50;;
3849;SDS011;1940;51.052;13.678;2022-08-27T09:50:38;10.70;;;6.93;;
3849;SDS011;1940;51.052;13.678;2022-08-27T09:55:58;13.57;;;6.53;;
3849;SDS011;1940;51.052;13.678;2022-08-27T10:01:15;7.97;;;6.33;;
3849;SDS011;1940;51.052;13.678;2022-08-27T10:04:54;8.10;;;5.50;;
3849;SDS011;1940;51.052;13.678;2022-08-27T10:09:59;6.70;;;5.30;;
3849;SDS011;1940;51.052;13.678;2022-08-27T10:15:22;8.00;;;5.47;;
3849;SDS011;1940;51.052;13.678;2022-08-27T10:17:56;8.33;;;5.50;;
3849;SDS011;1940;51.052;13.678;2022-08-27T10:21:29;6.63;;;5.63;;
3849;SDS011;1940;51.052;13.678;2022-08-27T10:23:46;10.70;;;6.30;;
3849;SDS011;1940;51.052;13.678;2022-08-27T10:26:42;7.20;;;5.40;;
3849;SDS011;1940;51.052;13.678;2022-08-27T10:29:45;7.20;;;5.30;;
3849;SDS011;1940;51.052;13.678;2022-08-27T10:32:32;11.90;;;5.77;;
3849;SDS011;1940;51.052;13.678;2022-08-27T10:38:09;9.20;;;5.77;;
3849;SDS011;1940;51.052;13.678;2022-08-27T10:40:53;8.70;;;5.50;;
3849;SDS011;1940;51.052;13.678;2022-08-27T10:46:46;7.67;;;6.10;;
3849;SDS011;1940;51.052;13.678;2022-08-27T10:52:10;9.30;;;6.77;;
3849;SDS011;1940;51.052;13.678;2022-08-27T10:55:44;9.27;;;6.77;;
3849;SDS011;1940;51.052;13.678;2022-08-27T11:00:31;5.10;;;3.50;;
3849;SDS011;1940;51.052;13.678;2022-08-27T11:03:09;3.40;;;2.93;;
3849;SDS011;1940;51.052;13.678;2022-08-27T11:05:41;4.67;;;3.10;;
3849;SDS011;1940;51.052;13.678;2022-08-27T11:10:43;5.77;;;3.37;;
3849;SDS011;1940;51.052;13.678;2022-08-27T11:13:17;5.40;;;3.50;;
3849;SDS011;1940;51.052;13.678;2022-08-27T11:15:52;4.00;;;3.10;;
3849;SDS011;1940;51.052;13.678;2022-08-27T11:21:13;4.20;;;3.40;;
3849;SDS011;1940;51.052;13.678;2022-08-27T11:23:48;5.37;;;3.83;;
3849;SDS011;1940;51.052;13.678;2022-08-27T11:26:19;5.70;;;4.27;;
3849;SDS011;1940;51.052;13.678;2022-08-27T11:28:52;6.87;;;4.37;;
3849;SDS011;1940;51.052;13.678;2022-08-27T11:31:32;6.00;;;4.37;;
3849;SDS011;1940;51.052;13.678;2022-08-27T11:34:16;5.47;;;4.17;;
3849;SDS011;1940;51.052;13.678;2022-08-27T11:37:12;6.63;;;4.20;;
3849;SDS011;1940;51.052;13.678;2022-08-27T11:40:16;5.83;;;4.50;;
3849;SDS011;1940;51.052;13.678;2022-08-27T11:42:53;6.37;;;4.40;;
3849;SDS011;1940;51.052;13.678;2022-08-27T11:45:28;5.13;;;4.00;;
3849;SDS011;1940;51.052;13.678;2022-08-27T11:48:12;5.77;;;3.87;;
3849;SDS011;1940;51.052;13.678;2022-08-27T11:50:41;5.40;;;4.10;;
3849;SDS011;1940;51.052;13.678;2022-08-27T11:59:07;5.53;;;4.50;;
3849;SDS011;1940;51.052;13.678;2022-08-27T12:01:51;6.10;;;4.50;;
3849;SDS011;1940;51.052;13.678;2022-08-27T12:04:20;8.80;;;4.70;;
3849;SDS011;1940;51.052;13.678;2022-08-27T12:07:06;6.90;;;4.93;;
3849;SDS011;1940;51.052;13.678;2022-08-27T12:12:32;7.37;;;5.40;;
3849;SDS011;1940;51.052;13.678;2022-08-27T12:21:13;7.90;;;4.90;;
3849;SDS011;1940;51.052;13.678;2022-08-27T12:23:51;9.13;;;6.03;;
3849;SDS011;1940;51.052;13.678;2022-08-27T12:31:48;6.83;;;5.10;;
3849;SDS011;1940;51.052;13.678;2022-08-27T12:34:27;7.90;;;5.40;;
3849;SDS011;1940;51.052;13.678;2022-08-27T12:36:53;9.03;;;5.30;;
3849;SDS011;1940;51.052;13.678;2022-08-27T12:39:23;8.20;;;5.90;;
3849;SDS011;1940;51.052;13.678;2022-08-27T12:41:52;8.13;;;5.80;;
3849;SDS011;1940;51.052;13.678;2022-08-27T12:44:28;6.17;;;5.07;;
3849;SDS011;1940;51.052;13.678;2022-08-27T12:49:37;6.80;;;5.50;;
3849;SDS011;1940;51.052;13.678;2022-08-27T12:52:58;6.80;;;5.57;;
3849;SDS011;1940;51.052;13.678;2022-08-27T13:03:28;7.13;;;5.70;;
3849;SDS011;1940;51.052;13.678;2022-08-27T13:05:59;6.73;;;5.20;;
3849;SDS011;1940;51.052;13.678;2022-08-27T13:08:27;9.93;;;6.37;;
3849;SDS011;1940;51.052;13.678;2022-08-27T13:10:55;11.57;;;7.53;;
3849;SDS011;1940;51.052;13.678;2022-08-27T13:13:45;16.77;;;7.37;;
3849;SDS011;1940;51.052;13.678;2022-08-27T13:16:11;12.13;;;7.97;;
3849;SDS011;1940;51.052;13.678;2022-08-27T13:18:38;10.60;;;7.40;;
3849;SDS011;1940;51.052;13.678;2022-08-27T13:23:57;11.97;;;8.10;;
3849;SDS011;1940;51.052;13.678;2022-08-27T13:26:29;11.70;;;7.90;;
3849;SDS011;1940;51.052;13.678;2022-08-27T13:29:01;12.67;;;8.43;;
3849;SDS011;1940;51.052;13.678;2022-08-27T13:31:29;12.63;;;8.97;;
3849;SDS011;1940;51.052;13.678;2022-08-27T13:33:58;13.13;;;8.50;;
3849;SDS011;1940;51.052;13.678;2022-08-27T13:36:25;13.20;;;8.90;;
3849;SDS011;1940;51.052;13.678;2022-08-27T13:38:55;12.97;;;9.03;;
3849;SDS011;1940;51.052;13.678;2022-08-27T13:41:29;15.43;;;8.40;;
3849;SDS011;1940;51.052;13.678;2022-08-27T13:44:04;12.50;;;8.60;;
3849;SDS011;1940;51.052;13.678;2022-08-27T13:46:42;13.43;;;9.10;;
3849;SDS011;1940;51.052;13.678;2022-08-27T13:49:13;12.93;;;9.33;;
3849;SDS011;1940;51.052;13.678;2022-08-27T13:51:42;14.53;;;9.30;;
3849;SDS011;1940;51.052;13.678;2022-08-27T13:54:09;14.43;;;9.27;;
3849;SDS011;1940;51.052;13.678;2022-08-27T13:59:12;12.00;;;9.20;;
3849;SDS011;1940;51.052;13.678;2022-08-27T14:07:19;12.40;;;8.90;;
3849;SDS011;1940;51.052;13.678;2022-08-27T14:10:19;11.00;;;8.30;;
3849;SDS011;1940;51.052;13.678;2022-08-27T14:12:42;12.13;;;8.60;;
3849;SDS011;1940;51.052;13.678;2022-08-27T14:15:17;11.40;;;8.40;;
3849;SDS011;1940;51.052;13.678;2022-08-27T14:17:46;10.27;;;8.10;;
3849;SDS011;1940;51.052;13.678;2022-08-27T14:20:13;13.80;;;8.70;;
3849;SDS011;1940;51.052;13.678;2022-08-27T14:22:39;13.47;;;8.40;;
3849;SDS011;1940;51.052;13.678;2022-08-27T14:25:06;16.60;;;9.00;;
3849;SDS011;1940;51.052;13.678;2022-08-27T14:27:33;19.07;;;10.30;;
3849;SDS011;1940;51.052;13.678;2022-08-27T14:30:00;14.90;;;10.30;;
3849;SDS011;1940;51.052;13.678;2022-08-27T14:32:26;11.63;;;7.87;;
3849;SDS011;1940;51.052;13.678;2022-08-27T14:34:52;14.57;;;8.10;;
3849;SDS011;1940;51.052;13.678;2022-08-27T14:37:17;13.43;;;8.10;;
3849;SDS011;1940;51.052;13.678;2022-08-27T14:39:43;16.23;;;7.90;;
3849;SDS011;1940;51.052;13.678;2022-08-27T14:42:09;10.80;;;7.77;;
3849;SDS011;1940;51.052;13.678;2022-08-27T14:44:35;10.50;;;7.70;;
3849;SDS011;1940;51.052;13.678;2022-08-27T14:47:02;10.13;;;7.60;;
3849;SDS011;1940;51.052;13.678;2022-08-27T14:49:30;12.27;;;7.83;;
3849;SDS011;1940;51.052;13.678;2022-08-27T14:51:58;10.37;;;7.67;;
3849;SDS011;1940;51.052;13.678;2022-08-27T14:54:25;10.47;;;7.47;;
3849;SDS011;1940;51.052;13.678;2022-08-27T14:56:50;11.93;;;7.93;;
3849;SDS011;1940;51.052;13.678;2022-08-27T14:59:18;11.40;;;7.87;;
3849;SDS011;1940;51.052;13.678;2022-08-27T15:01:43;8.93;;;6.10;;
3849;SDS011;1940;51.052;13.678;2022-08-27T15:04:09;9.00;;;6.03;;
3849;SDS011;1940;51.052;13.678;2022-08-27T15:06:34;9.90;;;6.10;;
3849;SDS011;1940;51.052;13.678;2022-08-27T15:09:01;10.17;;;6.27;;
3849;SDS011;1940;51.052;13.678;2022-08-27T15:11:27;11.70;;;5.57;;
3849;SDS011;1940;51.052;13.678;2022-08-27T15:13:55;7.50;;;5.50;;
3849;SDS011;1940;51.052;13.678;2022-08-27T15:16:26;8.20;;;6.17;;
3849;SDS011;1940;51.052;13.678;2022-08-27T15:18:51;8.60;;;6.33;;
3849;SDS011;1940;51.052;13.678;2022-08-27T15:21:17;9.17;;;5.97;;
3849;SDS011;1940;51.052;13.678;2022-08-27T15:23:43;9.03;;;6.60;;
3849;SDS011;1940;51.052;13.678;2022-08-27T15:26:12;11.30;;;7.00;;
3849;SDS011;1940;51.052;13.678;2022-08-27T15:28:38;13.47;;;8.33;;
3849;SDS011;1940;51.052;13.678;2022-08-27T15:31:04;13.17;;;8.67;;
3849;SDS011;1940;51.052;13.678;2022-08-27T15:33:29;11.10;;;7.70;;
3849;SDS011;1940;51.052;13.678;2022-08-27T15:35:55;11.70;;;7.80;;
3849;SDS011;1940;51.052;13.678;2022-08-27T15:38:21;11.00;;;7.60;;
3849;SDS011;1940;51.052;13.678;2022-08-27T15:40:46;10.13;;;7.20;;
3849;SDS011;1940;51.052;13.678;2022-08-27T15:43:12;11.73;;;8.20;;
3849;SDS011;1940;51.052;13.678;2022-08-27T15:45:38;12.80;;;9.20;;
3849;SDS011;1940;51.052;13.678;2022-08-27T15:48:04;14.07;;;9.17;;
3849;SDS011;1940;51.052;13.678;2022-08-27T15:50:29;10.70;;;8.30;;
3849;SDS011;1940;51.052;13.678;2022-08-27T15:52:58;12.27;;;8.37;;
3849;SDS011;1940;51.052;13.678;2022-08-27T15:55:28;12.97;;;8.50;;
3849;SDS011;1940;51.052;13.678;2022-08-27T15:57:56;11.43;;;8.77;;
3849;SDS011;1940;51.052;13.678;2022-08-27T16:00:23;14.23;;;9.50;;
3849;SDS011;1940;51.052;13.678;2022-08-27T16:02:49;12.07;;;8.13;;
3849;SDS011;1940;51.052;13.678;2022-08-27T16:05:15;12.10;;;8.00;;
3849;SDS011;1940;51.052;13.678;2022-08-27T16:07:42;11.50;;;8.40;;
3849;SDS011;1940;51.052;13.678;2022-08-27T16:10:08;12.10;;;8.33;;
3849;SDS011;1940;51.052;13.678;2022-08-27T16:12:34;13.77;;;7.87;;
3849;SDS011;1940;51.052;13.678;2022-08-27T16:15:00;11.70;;;8.73;;
3849;SDS011;1940;51.052;13.678;2022-08-27T16:17:27;10.87;;;7.90;;
3849;SDS011;1940;51.052;13.678;2022-08-27T16:19:52;11.47;;;8.57;;
3849;SDS011;1940;51.052;13.678;2022-08-27T16:22:18;12.20;;;8.83;;